Time;durP1;ratioP1;P1;durP2;ratioP2;P2;SDS_P1;SDS_P2;PMS_P1;PMS_P2;Temp;Humidity;BMP_temperature;BMP_pressure;BME280_temperature;BME280_humidity;BME280_pressure;Samples;Min_cycle;Max_cycle;Signal;HPM_P1;HPM_P2
2020/12/18 00:00:33;;;;;;;15.68;11.77;;;;;;;;;;5030037;28;20068;-61
2020/12/18 00:02:58;;;;;;;16.20;11.90;;;;;;;;;;5032069;28;20025;-61
2020/12/18 00:05:23;;;;;;;14.52;11.73;;;;;;;;;;5025135;28;20116;-61
2020/12/18 00:07:49;;;;;;;15.68;11.73;;;;;;;;;;5030939;28;20034;-61
2020/12/18 00:10:14;;;;;;;16.50;11.35;;;;;;;;;;5030046;28;20407;-61
2020/12/18 00:12:39;;;;;;;12.88;11.35;;;;;;;;;;5026158;28;20129;-61
2020/12/18 00:15:05;;;;;;;15.05;13.45;;;;;;;;;;5030533;28;20033;-61
2020/12/18 00:17:31;;;;;;;19.77;14.02;;;;;;;;;;5025925;28;20493;-61
2020/12/18 00:19:56;;;;;;;17.02;14.32;;;;;;;;;;5030757;28;20029;-61
2020/12/18 00:22:21;;;;;;;19.13;15.38;;;;;;;;;;5024358;28;20369;-61
2020/12/18 00:24:47;;;;;;;18.05;14.45;;;;;;;;;;5025562;28;20440;-61
2020/12/18 00:27:12;;;;;;;19.83;14.50;;;;;;;;;;5029213;28;20114;-61
2020/12/18 00:29:37;;;;;;;19.30;15.05;;;;;;;;;;5028985;28;20514;-61
2020/12/18 00:32:04;;;;;;;21.00;15.63;;;;;;;;;;5032683;28;20021;-60
2020/12/18 00:34:30;;;;;;;19.40;15.00;;;;;;;;;;5031793;28;20025;-61
2020/12/18 00:36:55;;;;;;;20.42;15.38;;;;;;;;;;5031307;28;20365;-61
2020/12/18 00:39:20;;;;;;;24.77;16.95;;;;;;;;;;5028359;28;20084;-61
2020/12/18 00:41:52;;;;;;;24.27;15.90;;;;;;;;;;5030112;28;20030;-61
2020/12/18 00:44:17;;;;;;;;;;;;;;;;;;5030383;28;20075;-61
2020/12/18 00:46:42;;;;;;;19.35;13.77;;;;;;;;;;5022696;28;19953;-61
2020/12/18 00:49:08;;;;;;;16.98;12.60;;;;;;;;;;5033234;28;20025;-61
2020/12/18 00:51:33;;;;;;;12.40;10.38;;;;;;;;;;5033574;28;20274;-61
2020/12/18 00:53:58;;;;;;;11.20;9.63;;;;;;;;;;5030442;28;20026;-60
2020/12/18 00:56:24;;;;;;;13.50;10.57;;;;;;;;;;5026085;28;20041;-61
2020/12/18 00:58:49;;;;;;;12.63;10.35;;;;;;;;;;5028721;28;20063;-61
2020/12/18 01:01:14;;;;;;;15.50;10.48;;;;;;;;;;5028618;28;20113;-61
2020/12/18 01:03:40;;;;;;;11.60;10.15;;;;;;;;;;5022765;28;20029;-61
2020/12/18 01:06:10;;;;;;;12.85;10.07;;;;;;;;;;5032249;28;20033;-61
2020/12/18 01:08:35;;;;;;;10.88;9.23;;;;;;;;;;5026862;28;20038;-61
2020/12/18 01:11:03;;;;;;;13.23;10.98;;;;;;;;;;5032173;28;20047;-61
2020/12/18 01:13:28;;;;;;;15.02;12.38;;;;;;;;;;5029840;28;20083;-61
2020/12/18 01:15:54;;;;;;;12.15;10.85;;;;;;;;;;5033893;28;20034;-61
2020/12/18 01:18:19;;;;;;;14.30;10.93;;;;;;;;;;5033296;28;20483;-61
2020/12/18 01:20:44;;;;;;;16.48;11.75;;;;;;;;;;5036511;28;20316;-61
2020/12/18 01:23:10;;;;;;;15.38;12.80;;;;;;;;;;5037505;28;20666;-61
2020/12/18 01:25:35;;;;;;;15.52;11.93;;;;;;;;;;5031269;28;20109;-61
2020/12/18 01:28:00;;;;;;;14.48;11.85;;;;;;;;;;5027660;28;20175;-61
2020/12/18 01:30:26;;;;;;;13.88;11.63;;;;;;;;;;5027896;28;20045;-61
2020/12/18 01:32:51;;;;;;;20.60;14.82;;;;;;;;;;5025382;28;20040;-61
2020/12/18 01:35:16;;;;;;;17.05;11.77;;;;;;;;;;5032176;28;20052;-60
2020/12/18 01:37:41;;;;;;;15.63;12.30;;;;;;;;;;5032041;28;20041;-61
2020/12/18 01:40:07;;;;;;;16.13;12.07;;;;;;;;;;5033412;28;20415;-61
2020/12/18 01:42:32;;;;;;;16.00;11.50;;;;;;;;;;5032151;28;20365;-61
2020/12/18 01:44:57;;;;;;;17.75;12.30;;;;;;;;;;5028542;28;20056;-61
2020/12/18 01:47:28;;;;;;;13.85;11.70;;;;;;;;;;5023841;28;20057;-61
2020/12/18 01:49:53;;;;;;;14.90;11.98;;;;;;;;;;5032827;28;20131;-61
2020/12/18 01:52:19;;;;;;;19.95;11.82;;;;;;;;;;5035217;28;20470;-61
2020/12/18 01:54:45;;;;;;;14.55;11.93;;;;;;;;;;5028016;28;20022;-61
2020/12/18 01:57:11;;;;;;;16.10;12.50;;;;;;;;;;5031199;28;20052;-61
2020/12/18 01:59:36;;;;;;;14.55;11.93;;;;;;;;;;5032779;28;20026;-61
2020/12/18 02:02:01;;;;;;;18.73;11.60;;;;;;;;;;5028790;28;20041;-61
2020/12/18 02:04:27;;;;;;;14.68;11.13;;;;;;;;;;5029150;28;20103;-61
2020/12/18 02:06:55;;;;;;;16.90;12.80;;;;;;;;;;5031381;28;20037;-61
2020/12/18 02:09:20;;;;;;;14.43;11.18;;;;;;;;;;5028529;28;20103;-61
2020/12/18 02:11:46;;;;;;;11.88;10.43;;;;;;;;;;5029166;28;20041;-61
2020/12/18 02:14:13;;;;;;;19.25;11.02;;;;;;;;;;5027953;28;20479;-61
2020/12/18 02:16:39;;;;;;;12.52;10.48;;;;;;;;;;5034841;28;20256;-61
2020/12/18 02:19:05;;;;;;;13.07;11.13;;;;;;;;;;5029155;28;20456;-61
2020/12/18 02:21:35;;;;;;;12.30;10.52;;;;;;;;;;5031180;28;20048;-62
2020/12/18 02:24:00;;;;;;;15.85;11.40;;;;;;;;;;5034576;28;20045;-61
2020/12/18 02:26:25;;;;;;;15.57;12.00;;;;;;;;;;5032191;28;20057;-61
2020/12/18 02:28:51;;;;;;;18.88;11.90;;;;;;;;;;5028700;28;20087;-62
2020/12/18 02:31:16;;;;;;;15.35;11.60;;;;;;;;;;5032230;28;20467;-61
2020/12/18 02:33:42;;;;;;;17.17;11.50;;;;;;;;;;5028373;28;20029;-61
2020/12/18 02:36:08;;;;;;;15.50;11.32;;;;;;;;;;5024268;28;20029;-61
2020/12/18 02:38:34;;;;;;;15.65;12.20;;;;;;;;;;5032303;28;20029;-61
2020/12/18 02:40:59;;;;;;;16.23;11.85;;;;;;;;;;5028748;28;20029;-62
2020/12/18 02:43:25;;;;;;;18.75;13.05;;;;;;;;;;5032958;28;20529;-61
2020/12/18 02:45:50;;;;;;;15.20;11.55;;;;;;;;;;5038528;28;20029;-61
2020/12/18 02:48:16;;;;;;;13.65;10.95;;;;;;;;;;5030355;28;20382;-61
2020/12/18 02:50:42;;;;;;;16.40;12.00;;;;;;;;;;5029324;28;20038;-61
2020/12/18 02:53:18;;;;;;;17.25;12.70;;;;;;;;;;5028253;28;20037;-61
2020/12/18 02:55:44;;;;;;;22.55;13.35;;;;;;;;;;5028520;28;20026;-61
2020/12/18 02:58:10;;;;;;;26.52;14.30;;;;;;;;;;5033997;28;20044;-61
2020/12/18 03:00:36;;;;;;;21.27;15.57;;;;;;;;;;5031696;28;20037;-61
2020/12/18 03:03:03;;;;;;;24.20;14.18;;;;;;;;;;5026207;28;20624;-61
2020/12/18 03:05:28;;;;;;;17.60;12.80;;;;;;;;;;5029036;28;20036;-61
2020/12/18 03:07:54;;;;;;;19.90;16.25;;;;;;;;;;5030963;28;20029;-61
2020/12/18 03:10:19;;;;;;;19.83;16.40;;;;;;;;;;5034627;28;20040;-61
2020/12/18 03:12:44;;;;;;;20.70;16.92;;;;;;;;;;5026489;28;20124;-61
2020/12/18 03:15:10;;;;;;;26.13;19.65;;;;;;;;;;5031733;28;20057;-61
2020/12/18 03:17:35;;;;;;;31.10;21.67;;;;;;;;;;5033496;28;20042;-61
2020/12/18 03:20:00;;;;;;;27.40;20.38;;;;;;;;;;5029362;28;20394;-61
2020/12/18 03:22:26;;;;;;;29.75;21.15;;;;;;;;;;5031417;28;20483;-61
2020/12/18 03:24:51;;;;;;;30.58;21.92;;;;;;;;;;5030743;28;20154;-61
2020/12/18 03:27:16;;;;;;;33.78;22.15;;;;;;;;;;5026081;28;20068;-61
2020/12/18 03:29:42;;;;;;;39.20;23.92;;;;;;;;;;5033286;28;20040;-61
2020/12/18 03:32:07;;;;;;;50.40;23.73;;;;;;;;;;5033111;28;20075;-61
2020/12/18 03:34:32;;;;;;;48.92;26.50;;;;;;;;;;5028036;28;20038;-61
2020/12/18 03:36:58;;;;;;;37.88;24.63;;;;;;;;;;5030529;28;20452;-61
2020/12/18 03:39:23;;;;;;;54.30;26.10;;;;;;;;;;5009326;28;20079;-61
2020/12/18 03:41:48;;;;;;;72.53;28.23;;;;;;;;;;5029105;28;20040;-61
2020/12/18 03:44:14;;;;;;;53.20;26.75;;;;;;;;;;5026230;28;20083;-61
2020/12/18 03:46:39;;;;;;;98.78;28.45;;;;;;;;;;5031171;28;20125;-61
2020/12/18 03:49:04;;;;;;;70.03;27.17;;;;;;;;;;5033906;28;20929;-61
2020/12/18 03:51:30;;;;;;;45.47;25.88;;;;;;;;;;5030233;28;20479;-62
2020/12/18 03:53:55;;;;;;;48.60;24.73;;;;;;;;;;5031642;28;20033;-61
2020/12/18 03:56:20;;;;;;;35.08;24.50;;;;;;;;;;5031085;28;20041;-61
2020/12/18 03:58:46;;;;;;;60.15;27.05;;;;;;;;;;5030878;28;20072;-61
2020/12/18 04:01:11;;;;;;;34.38;22.85;;;;;;;;;;5027551;28;20041;-61
2020/12/18 04:03:36;;;;;;;31.92;22.27;;;;;;;;;;5028208;28;20041;-61
2020/12/18 04:06:02;;;;;;;35.97;23.00;;;;;;;;;;5029172;28;20014;-62
2020/12/18 04:08:27;;;;;;;52.90;21.95;;;;;;;;;;5030860;28;20052;-61
2020/12/18 04:10:52;;;;;;;50.53;21.50;;;;;;;;;;5033173;28;20380;-61
2020/12/18 04:13:18;;;;;;;54.55;20.52;;;;;;;;;;5034378;28;20061;-61
2020/12/18 04:15:43;;;;;;;28.40;20.45;;;;;;;;;;5027720;28;20047;-61
2020/12/18 04:18:10;;;;;;;35.92;21.23;;;;;;;;;;5027737;28;20036;-61
2020/12/18 04:20:36;;;;;;;30.80;21.40;;;;;;;;;;5025168;28;20032;-61
2020/12/18 04:23:01;;;;;;;28.67;20.00;;;;;;;;;;5024363;28;20029;-61
2020/12/18 04:25:27;;;;;;;34.38;20.40;;;;;;;;;;5026999;28;20025;-62
2020/12/18 04:27:52;;;;;;;26.13;18.73;;;;;;;;;;5026605;28;20126;-61
2020/12/18 04:30:17;;;;;;;34.40;19.48;;;;;;;;;;5027635;28;20033;-61
2020/12/18 04:32:42;;;;;;;26.38;17.40;;;;;;;;;;5027243;28;20041;-61
2020/12/18 04:35:08;;;;;;;27.15;18.85;;;;;;;;;;5032368;28;20050;-61
2020/12/18 04:37:33;;;;;;;25.90;17.80;;;;;;;;;;5025486;28;20051;-61
2020/12/18 04:39:59;;;;;;;27.02;18.27;;;;;;;;;;5030186;28;20056;-61
2020/12/18 04:42:25;;;;;;;27.30;16.95;;;;;;;;;;5034663;28;20037;-61
2020/12/18 04:44:50;;;;;;;22.67;17.13;;;;;;;;;;5026827;28;20025;-61
2020/12/18 04:47:16;;;;;;;28.13;17.17;;;;;;;;;;5026934;28;20041;-61
2020/12/18 04:49:42;;;;;;;24.83;17.00;;;;;;;;;;5027250;28;20029;-61
2020/12/18 04:52:12;;;;;;;24.85;17.75;;;;;;;;;;5029718;28;20470;-61
2020/12/18 04:54:41;;;;;;;24.33;18.75;;;;;;;;;;5024225;28;20452;-61
2020/12/18 04:57:08;;;;;;;23.92;17.83;;;;;;;;;;5029196;28;20048;-61
2020/12/18 04:59:34;;;;;;;27.88;18.55;;;;;;;;;;5035417;28;20079;-61
2020/12/18 05:01:59;;;;;;;29.45;17.35;;;;;;;;;;5028568;28;20036;-61
2020/12/18 05:04:27;;;;;;;23.40;17.10;;;;;;;;;;5026272;28;20033;-61
2020/12/18 05:06:54;;;;;;;21.27;16.67;;;;;;;;;;5026103;28;20075;-61
2020/12/18 05:09:23;;;;;;;23.23;17.00;;;;;;;;;;5027283;28;20041;-61
2020/12/18 05:11:51;;;;;;;19.48;16.08;;;;;;;;;;5030474;28;20050;-61
2020/12/18 05:14:16;;;;;;;20.15;16.13;;;;;;;;;;5033490;28;20047;-61
2020/12/18 05:16:42;;;;;;;25.58;18.02;;;;;;;;;;5026204;28;20125;-61
2020/12/18 05:19:07;;;;;;;21.25;16.52;;;;;;;;;;5029792;28;20172;-61
2020/12/18 05:21:35;;;;;;;22.02;15.95;;;;;;;;;;5022362;28;20136;-61
2020/12/18 05:24:00;;;;;;;25.60;16.35;;;;;;;;;;5026014;28;20025;-61
2020/12/18 05:26:30;;;;;;;20.48;16.70;;;;;;;;;;5028470;28;20041;-61
2020/12/18 05:29:16;;;;;;;24.15;15.48;;;;;;;;;;5028064;28;20423;-61
2020/12/18 05:31:47;;;;;;;21.25;15.93;;;;;;;;;;5032366;28;20116;-61
2020/12/18 05:34:14;;;;;;;24.60;16.02;;;;;;;;;;5028597;28;20117;-61
2020/12/18 05:36:42;;;;;;;18.90;15.70;;;;;;;;;;5028360;28;20437;-61
2020/12/18 05:39:07;;;;;;;24.88;15.57;;;;;;;;;;5023278;28;20037;-61
2020/12/18 05:41:32;;;;;;;25.50;16.17;;;;;;;;;;5026205;28;20072;-61
2020/12/18 05:44:04;;;;;;;19.88;17.13;;;;;;;;;;5028669;28;20562;-61
2020/12/18 05:46:32;;;;;;;17.90;15.05;;;;;;;;;;5025891;28;20037;-61
2020/12/18 05:49:40;;;;;;;;;;;;;;;;;;;;;
2020/12/18 05:52:30;;;;;;;;;;;;;;;;;;;;;
2020/12/18 05:55:22;;;;;;;37.22;15.15;;;;;;;;;;5030499;28;20484;-61
2020/12/18 05:58:01;;;;;;;17.23;15.48;;;;;;;;;;5027515;28;20133;-61
2020/12/18 06:00:51;;;;;;;21.00;15.70;;;;;;;;;;5037197;28;20399;-61
2020/12/18 06:03:36;;;;;;;33.13;15.55;;;;;;;;;;5028001;28;20037;-61
2020/12/18 06:06:11;;;;;;;29.20;16.70;;;;;;;;;;5027953;28;20036;-61
2020/12/18 06:12:26;;;;;;;38.50;16.13;;;;;;;;;;5024715;28;20538;-70
2020/12/18 06:14:51;;;;;;;71.57;15.05;;;;;;;;;;5030800;28;20030;-70
2020/12/18 06:17:26;;;;;;;30.48;16.05;;;;;;;;;;5025674;28;20091;-69
2020/12/18 06:19:56;;;;;;;66.43;16.00;;;;;;;;;;5028825;28;20037;-70
2020/12/18 06:22:21;;;;;;;126.00;16.43;;;;;;;;;;5030276;28;20064;-69
2020/12/18 06:24:47;;;;;;;61.80;16.42;;;;;;;;;;5025009;28;20029;-69
2020/12/18 06:27:14;;;;;;;63.15;16.48;;;;;;;;;;5029417;28;20057;-68
2020/12/18 06:29:40;;;;;;;93.68;14.90;;;;;;;;;;5029165;28;20044;-69
2020/12/18 06:32:23;;;;;;;67.38;14.98;;;;;;;;;;5029819;28;20082;-70
2020/12/18 06:34:49;;;;;;;108.93;15.43;;;;;;;;;;5025343;28;20248;-69
2020/12/18 06:37:31;;;;;;;73.90;16.02;;;;;;;;;;5021111;28;20124;-70
2020/12/18 06:39:57;;;;;;;142.07;18.13;;;;;;;;;;5024432;28;20048;-69
2020/12/18 06:42:25;;;;;;;18.05;14.98;;;;;;;;;;5029092;28;20065;-70
2020/12/18 06:44:52;;;;;;;110.05;15.02;;;;;;;;;;5010727;28;20132;-69
2020/12/18 06:47:25;;;;;;;57.88;15.50;;;;;;;;;;5038735;28;20047;-69
2020/12/18 06:50:26;;;;;;;135.48;13.77;;;;;;;;;;5028575;28;20029;-71
2020/12/18 06:52:51;;;;;;;61.90;14.32;;;;;;;;;;5017511;28;20053;-71
2020/12/18 06:55:26;;;;;;;147.93;15.73;;;;;;;;;;5029217;28;20099;-69
2020/12/18 06:58:24;;;;;;;102.35;14.70;;;;;;;;;;5035556;28;20040;-69
2020/12/18 07:00:52;;;;;;;94.68;14.10;;;;;;;;;;5027317;28;20034;-69
2020/12/18 07:03:40;;;;;;;70.22;14.70;;;;;;;;;;5028366;28;20047;-69
2020/12/18 07:06:33;;;;;;;61.03;15.30;;;;;;;;;;5032131;28;20033;-70
2020/12/18 07:09:00;;;;;;;79.78;15.57;;;;;;;;;;5028532;28;20041;-69
2020/12/18 07:11:29;;;;;;;116.60;16.30;;;;;;;;;;5034118;28;20112;-69
2020/12/18 07:13:54;;;;;;;74.97;16.38;;;;;;;;;;5029488;28;20046;-69
2020/12/18 07:16:24;;;;;;;97.05;14.70;;;;;;;;;;5031574;28;20046;-69
2020/12/18 07:18:50;;;;;;;61.55;14.45;;;;;;;;;;5032253;28;20041;-69
2020/12/18 07:21:17;;;;;;;90.50;13.63;;;;;;;;;;5029760;28;20033;-69
2020/12/18 07:23:45;;;;;;;59.53;14.43;;;;;;;;;;5029864;28;20170;-69
2020/12/18 07:26:11;;;;;;;109.43;15.95;;;;;;;;;;5031557;28;20040;-69
2020/12/18 07:28:39;;;;;;;82.63;15.85;;;;;;;;;;5026974;28;20149;-69
2020/12/18 07:31:25;;;;;;;70.63;15.60;;;;;;;;;;5027002;28;20108;-69
2020/12/18 07:33:58;;;;;;;110.13;16.00;;;;;;;;;;5028581;28;20072;-69
2020/12/18 07:36:24;;;;;;;49.45;12.60;;;;;;;;;;5032030;28;20037;-69
2020/12/18 07:38:51;;;;;;;78.20;13.95;;;;;;;;;;5026668;28;20040;-69
2020/12/18 07:41:16;;;;;;;50.80;12.23;;;;;;;;;;5030609;28;20068;-69
2020/12/18 07:43:44;;;;;;;22.23;13.23;;;;;;;;;;5029976;28;20045;-69
2020/12/18 07:46:11;;;;;;;72.35;14.43;;;;;;;;;;5028252;28;20425;-69
2020/12/18 07:48:39;;;;;;;49.15;14.57;;;;;;;;;;5034686;28;20430;-69
2020/12/18 07:51:09;;;;;;;85.18;14.68;;;;;;;;;;5026080;28;20119;-69
2020/12/18 07:53:37;;;;;;;65.25;14.18;;;;;;;;;;5028906;28;20044;-69
2020/12/18 07:56:19;;;;;;;25.45;14.07;;;;;;;;;;5034582;28;20444;-69
2020/12/18 07:58:54;;;;;;;19.40;13.95;;;;;;;;;;5033926;28;20029;-69
2020/12/18 08:01:23;;;;;;;22.38;14.85;;;;;;;;;;5028424;28;20040;-69
2020/12/18 08:03:55;;;;;;;16.15;14.02;;;;;;;;;;5029505;28;20051;-70
2020/12/18 08:06:32;;;;;;;33.78;15.77;;;;;;;;;;5020556;28;20106;-70
2020/12/18 08:09:04;;;;;;;28.92;13.50;;;;;;;;;;5026386;28;20037;-69
2020/12/18 08:11:31;;;;;;;30.95;14.40;;;;;;;;;;5024237;28;20040;-70
2020/12/18 08:13:57;;;;;;;23.17;13.57;;;;;;;;;;5027541;28;20039;-69
2020/12/18 08:16:25;;;;;;;31.23;14.18;;;;;;;;;;5023439;28;20039;-69
2020/12/18 08:18:52;;;;;;;22.10;13.45;;;;;;;;;;5030186;28;20033;-69
2020/12/18 08:21:29;;;;;;;26.25;13.40;;;;;;;;;;5025955;28;20426;-70
2020/12/18 08:24:14;;;;;;;48.47;15.38;;;;;;;;;;5031037;28;20112;-69
2020/12/18 08:26:52;;;;;;;36.38;14.68;;;;;;;;;;5026435;28;20083;-69
2020/12/18 08:29:20;;;;;;;44.17;14.82;;;;;;;;;;5018285;28;20049;-69
2020/12/18 08:31:47;;;;;;;127.72;14.20;;;;;;;;;;5016321;28;20376;-70
2020/12/18 08:34:15;;;;;;;52.00;13.95;;;;;;;;;;5020720;28;20118;-69
2020/12/18 08:36:45;;;;;;;67.95;14.60;;;;;;;;;;5021391;28;20037;-69
2020/12/18 08:39:12;;;;;;;42.33;15.23;;;;;;;;;;5026416;28;20035;-69
2020/12/18 08:41:50;;;;;;;66.50;15.00;;;;;;;;;;5026178;28;20127;-70
2020/12/18 08:44:18;;;;;;;55.15;15.00;;;;;;;;;;5018706;28;20064;-70
2020/12/18 08:46:43;;;;;;;52.40;15.27;;;;;;;;;;5027504;28;20539;-69
2020/12/18 08:49:23;;;;;;;77.00;14.98;;;;;;;;;;5022279;28;20149;-68
2020/12/18 08:51:50;;;;;;;39.65;14.57;;;;;;;;;;5022750;28;20037;-69
2020/12/18 08:54:37;;;;;;;52.13;15.95;;;;;;;;;;5030821;28;20056;-69
2020/12/18 08:57:21;;;;;;;78.25;16.35;;;;;;;;;;5031124;28;20041;-68
2020/12/18 09:00:04;;;;;;;55.55;15.75;;;;;;;;;;5023145;28;20483;-68
2020/12/18 09:02:34;;;;;;;21.75;15.10;;;;;;;;;;5032321;28;20132;-69
2020/12/18 09:05:30;;;;;;;69.28;16.23;;;;;;;;;;5026037;28;20104;-68
2020/12/18 09:07:58;;;;;;;24.25;15.93;;;;;;;;;;5027676;28;20113;-68
2020/12/18 09:10:33;;;;;;;23.17;15.35;;;;;;;;;;5026794;28;20046;-68
2020/12/18 09:13:16;;;;;;;18.05;14.27;;;;;;;;;;5030634;28;20041;-69
2020/12/18 09:15:44;;;;;;;22.50;15.18;;;;;;;;;;5031366;28;20040;-69
2020/12/18 09:18:11;;;;;;;25.90;16.35;;;;;;;;;;5029207;28;20076;-69
2020/12/18 09:20:39;;;;;;;98.90;17.05;;;;;;;;;;5032062;28;20649;-69
2020/12/18 09:23:12;;;;;;;44.58;15.65;;;;;;;;;;5025298;28;20044;-69
2020/12/18 09:25:48;;;;;;;42.65;15.55;;;;;;;;;;5030238;28;20466;-69
2020/12/18 09:28:17;;;;;;;82.32;17.00;;;;;;;;;;5028052;28;20060;-68
2020/12/18 09:31:03;;;;;;;51.50;16.02;;;;;;;;;;5034403;28;20029;-70
2020/12/18 09:33:31;;;;;;;44.53;14.77;;;;;;;;;;5031825;28;20399;-69
2020/12/18 09:36:09;;;;;;;18.70;14.85;;;;;;;;;;5029393;28;20464;-69
2020/12/18 09:38:46;;;;;;;27.35;16.58;;;;;;;;;;5026064;28;20060;-70
2020/12/18 09:41:16;;;;;;;34.60;14.65;;;;;;;;;;5031440;28;20044;-70
2020/12/18 09:43:42;;;;;;;31.90;16.55;;;;;;;;;;5028145;28;20122;-72
2020/12/18 09:46:11;;;;;;;23.60;15.82;;;;;;;;;;5029590;28;20025;-71
2020/12/18 09:48:41;;;;;;;42.05;15.30;;;;;;;;;;5027721;28;20439;-70
2020/12/18 09:51:07;;;;;;;55.72;16.25;;;;;;;;;;5036528;28;20124;-69
2020/12/18 09:53:32;;;;;;;25.60;15.88;;;;;;;;;;5028434;28;20125;-70
2020/12/18 09:55:58;;;;;;;31.02;15.70;;;;;;;;;;5033700;28;20540;-70
2020/12/18 09:58:23;;;;;;;21.17;15.60;;;;;;;;;;5028742;28;20103;-68
2020/12/18 10:00:48;;;;;;;24.40;16.23;;;;;;;;;;5027727;28;20041;-68
2020/12/18 10:03:14;;;;;;;33.85;17.15;;;;;;;;;;5028803;28;20095;-68
2020/12/18 10:05:39;;;;;;;46.53;16.13;;;;;;;;;;5028480;28;20030;-68
2020/12/18 10:08:05;;;;;;;35.85;16.17;;;;;;;;;;5031677;28;20384;-68
2020/12/18 10:10:31;;;;;;;69.90;17.50;;;;;;;;;;5029301;28;20033;-67
2020/12/18 10:12:58;;;;;;;58.08;16.80;;;;;;;;;;5028288;28;20480;-70
2020/12/18 10:15:24;;;;;;;67.38;17.75;;;;;;;;;;5029440;28;20029;-70
2020/12/18 10:17:49;;;;;;;66.82;16.95;;;;;;;;;;5032058;28;20518;-70
2020/12/18 10:20:15;;;;;;;54.45;17.23;;;;;;;;;;5033911;28;20036;-69
2020/12/18 10:22:40;;;;;;;40.67;17.20;;;;;;;;;;5019569;28;20041;-69
2020/12/18 10:25:07;;;;;;;49.75;15.85;;;;;;;;;;5027903;28;20049;-69
2020/12/18 10:27:32;;;;;;;64.03;19.23;;;;;;;;;;5028853;28;20432;-68
2020/12/18 10:29:57;;;;;;;52.72;16.95;;;;;;;;;;5027552;28;20041;-69
2020/12/18 10:32:27;;;;;;;61.45;16.88;;;;;;;;;;5026696;28;20099;-70
2020/12/18 10:34:52;;;;;;;32.90;17.00;;;;;;;;;;5032322;28;20053;-70
2020/12/18 10:37:18;;;;;;;71.45;17.92;;;;;;;;;;5031925;28;20091;-68
2020/12/18 10:39:43;;;;;;;24.75;17.13;;;;;;;;;;5032666;28;20079;-70
2020/12/18 10:42:09;;;;;;;34.75;16.73;;;;;;;;;;5030613;28;20038;-69
2020/12/18 10:44:35;;;;;;;41.65;14.77;;;;;;;;;;5022363;28;20380;-69
2020/12/18 10:47:00;;;;;;;24.55;15.75;;;;;;;;;;5027126;28;20069;-69
2020/12/18 10:49:27;;;;;;;33.85;14.98;;;;;;;;;;5024892;28;20066;-69
2020/12/18 10:51:52;;;;;;;22.88;15.30;;;;;;;;;;5030623;28;20603;-69
2020/12/18 10:54:18;;;;;;;23.95;15.30;;;;;;;;;;5025645;28;20033;-69
2020/12/18 10:56:45;;;;;;;23.00;16.42;;;;;;;;;;5032821;28;20025;-68
2020/12/18 10:59:11;;;;;;;23.20;14.88;;;;;;;;;;5034503;28;20041;-68
2020/12/18 11:01:37;;;;;;;26.38;16.13;;;;;;;;;;5029875;28;20502;-69
2020/12/18 11:04:03;;;;;;;23.70;15.90;;;;;;;;;;5028657;28;20128;-68
2020/12/18 11:06:28;;;;;;;23.55;14.95;;;;;;;;;;5027218;28;20109;-68
2020/12/18 11:08:55;;;;;;;20.30;15.02;;;;;;;;;;5028162;28;20072;-69
2020/12/18 11:11:20;;;;;;;22.55;15.63;;;;;;;;;;5034792;28;20041;-69
2020/12/18 11:13:46;;;;;;;26.00;14.65;;;;;;;;;;5026089;28;20037;-69
2020/12/18 11:16:12;;;;;;;29.55;14.88;;;;;;;;;;5023557;28;20025;-69
2020/12/18 11:18:37;;;;;;;20.38;15.73;;;;;;;;;;5026357;28;20457;-71
2020/12/18 11:21:04;;;;;;;25.85;14.23;;;;;;;;;;5030348;28;20115;-71
2020/12/18 11:23:30;;;;;;;22.25;14.98;;;;;;;;;;5028974;28;20033;-69
2020/12/18 11:25:56;;;;;;;26.35;15.35;;;;;;;;;;5029866;28;20083;-69
2020/12/18 11:28:21;;;;;;;25.52;14.02;;;;;;;;;;5029078;28;20483;-70
2020/12/18 11:30:46;;;;;;;19.75;14.40;;;;;;;;;;5029542;28;20060;-70
2020/12/18 11:33:12;;;;;;;20.33;14.95;;;;;;;;;;5029983;28;20645;-69
2020/12/18 11:35:37;;;;;;;20.58;14.43;;;;;;;;;;5024622;28;20022;-70
2020/12/18 11:38:03;;;;;;;20.58;14.57;;;;;;;;;;5030295;28;20037;-69
2020/12/18 11:40:28;;;;;;;24.63;14.63;;;;;;;;;;5025236;28;20109;-70
2020/12/18 11:42:54;;;;;;;20.85;15.00;;;;;;;;;;5023355;28;20099;-69
2020/12/18 11:45:19;;;;;;;25.15;15.27;;;;;;;;;;5028441;28;20106;-69
2020/12/18 11:47:44;;;;;;;16.83;13.82;;;;;;;;;;5032600;28;20530;-70
2020/12/18 11:50:11;;;;;;;26.00;15.43;;;;;;;;;;5032637;28;20041;-69
2020/12/18 11:52:36;;;;;;;24.48;16.95;;;;;;;;;;5022908;28;20129;-69
2020/12/18 11:55:03;;;;;;;36.08;16.73;;;;;;;;;;5030268;28;20061;-67
2020/12/18 11:57:28;;;;;;;29.20;14.60;;;;;;;;;;5025217;28;20519;-69
2020/12/18 11:59:53;;;;;;;23.70;16.38;;;;;;;;;;5022403;28;20029;-69
2020/12/18 12:02:19;;;;;;;38.88;16.08;;;;;;;;;;5028991;28;20037;-69
2020/12/18 12:04:44;;;;;;;21.63;16.75;;;;;;;;;;5027366;28;20532;-68
2020/12/18 12:07:09;;;;;;;20.48;16.20;;;;;;;;;;5028185;28;20452;-68
2020/12/18 12:09:35;;;;;;;20.85;15.55;;;;;;;;;;5029606;28;20029;-68
2020/12/18 12:12:00;;;;;;;22.58;15.93;;;;;;;;;;5027924;28;20080;-68
2020/12/18 12:14:25;;;;;;;31.08;15.80;;;;;;;;;;5029351;28;20033;-69
2020/12/18 12:16:51;;;;;;;23.48;16.30;;;;;;;;;;5024135;28;20037;-70
2020/12/18 12:19:17;;;;;;;31.13;17.38;;;;;;;;;;5022985;28;20048;-70
2020/12/18 12:21:42;;;;;;;20.42;16.52;;;;;;;;;;5024860;28;20065;-70
2020/12/18 12:24:07;;;;;;;24.35;17.33;;;;;;;;;;5021494;28;20722;-70
2020/12/18 12:26:33;;;;;;;22.42;16.40;;;;;;;;;;5024848;28;20044;-69
2020/12/18 12:28:58;;;;;;;30.63;17.45;;;;;;;;;;5026378;28;20049;-70
2020/12/18 12:31:24;;;;;;;27.80;15.70;;;;;;;;;;5027138;28;20094;-69
2020/12/18 12:33:49;;;;;;;23.38;16.00;;;;;;;;;;5024241;28;20040;-69
2020/12/18 12:36:23;;;;;;;20.35;14.85;;;;;;;;;;5022664;28;20098;-68
2020/12/18 12:38:49;;;;;;;27.63;15.05;;;;;;;;;;5028985;28;20029;-68
2020/12/18 12:41:16;;;;;;;29.88;16.02;;;;;;;;;;5024713;28;20033;-68
2020/12/18 12:43:42;;;;;;;22.35;14.63;;;;;;;;;;5034318;28;20025;-69
2020/12/18 12:46:07;;;;;;;31.77;17.17;;;;;;;;;;5030914;28;20078;-69
2020/12/18 12:48:33;;;;;;;25.20;17.40;;;;;;;;;;5028754;28;20046;-70
2020/12/18 12:50:58;;;;;;;25.60;17.48;;;;;;;;;;5023482;28;20456;-70
2020/12/18 12:53:23;;;;;;;20.88;16.40;;;;;;;;;;5027614;28;20040;-69
2020/12/18 12:55:50;;;;;;;27.10;17.13;;;;;;;;;;5023047;28;20053;-69
2020/12/18 12:58:17;;;;;;;20.45;16.85;;;;;;;;;;5025254;28;20034;-70
2020/12/18 13:00:43;;;;;;;28.23;17.23;;;;;;;;;;5024376;28;20026;-70
2020/12/18 13:03:09;;;;;;;28.52;17.90;;;;;;;;;;5027581;28;20075;-70
2020/12/18 13:05:35;;;;;;;24.98;17.42;;;;;;;;;;5031639;28;20049;-70
2020/12/18 13:08:00;;;;;;;26.90;17.75;;;;;;;;;;5028065;28;20397;-70
2020/12/18 13:10:25;;;;;;;26.48;17.17;;;;;;;;;;5027883;28;20042;-72
2020/12/18 13:12:51;;;;;;;26.65;16.92;;;;;;;;;;5036175;28;20425;-70
2020/12/18 13:15:16;;;;;;;34.63;19.38;;;;;;;;;;5033249;28;20032;-69
2020/12/18 13:17:41;;;;;;;28.27;18.60;;;;;;;;;;5030427;28;20030;-69
2020/12/18 13:20:07;;;;;;;25.73;18.33;;;;;;;;;;5033317;28;20042;-70
2020/12/18 13:22:32;;;;;;;30.65;17.77;;;;;;;;;;5028063;28;20476;-68
2020/12/18 13:24:57;;;;;;;24.15;17.83;;;;;;;;;;5026007;28;20065;-68
2020/12/18 13:27:23;;;;;;;23.98;18.25;;;;;;;;;;5029034;28;20472;-69
2020/12/18 13:29:48;;;;;;;26.17;19.23;;;;;;;;;;5028671;28;20030;-69
2020/12/18 13:32:13;;;;;;;29.00;16.73;;;;;;;;;;5027094;28;20033;-69
2020/12/18 13:34:39;;;;;;;21.77;16.30;;;;;;;;;;5028667;28;20033;-69
2020/12/18 13:37:05;;;;;;;29.60;17.90;;;;;;;;;;5031266;28;20156;-68
2020/12/18 13:39:31;;;;;;;22.98;17.60;;;;;;;;;;5028746;28;20113;-68
2020/12/18 13:41:57;;;;;;;38.85;19.45;;;;;;;;;;5033751;28;20057;-68
2020/12/18 13:44:22;;;;;;;26.83;19.55;;;;;;;;;;5029311;28;20091;-68
2020/12/18 13:46:48;;;;;;;24.90;18.38;;;;;;;;;;5026647;28;20021;-69
2020/12/18 13:49:13;;;;;;;36.20;18.40;;;;;;;;;;5028718;28;20047;-69
2020/12/18 13:51:38;;;;;;;25.50;18.88;;;;;;;;;;5030333;28;20120;-69
2020/12/18 13:54:03;;;;;;;28.83;20.15;;;;;;;;;;5029674;28;20043;-69
2020/12/18 13:56:31;;;;;;;29.95;20.95;;;;;;;;;;5025867;28;20057;-68
2020/12/18 13:58:56;;;;;;;28.67;20.90;;;;;;;;;;5026941;28;20523;-68
2020/12/18 14:01:22;;;;;;;28.73;19.40;;;;;;;;;;5031606;28;20064;-68
2020/12/18 14:03:47;;;;;;;30.73;19.90;;;;;;;;;;5027792;28;20116;-61
2020/12/18 14:06:17;;;;;;;26.75;19.92;;;;;;;;;;5032788;28;20041;-61
2020/12/18 14:08:44;;;;;;;22.63;18.83;;;;;;;;;;5029947;28;20054;-61
2020/12/18 14:11:09;;;;;;;32.17;19.10;;;;;;;;;;5030655;28;20048;-61
2020/12/18 14:13:35;;;;;;;30.27;19.20;;;;;;;;;;5015245;28;20037;-61
2020/12/18 14:16:00;;;;;;;25.80;19.33;;;;;;;;;;5030381;28;20022;-61
2020/12/18 14:18:25;;;;;;;29.98;19.17;;;;;;;;;;5030374;28;20048;-61
2020/12/18 14:20:51;;;;;;;27.83;18.77;;;;;;;;;;5028078;28;20045;-61
2020/12/18 14:23:16;;;;;;;25.17;18.77;;;;;;;;;;5033236;28;20063;-61
2020/12/18 14:25:41;;;;;;;29.50;19.67;;;;;;;;;;5023892;28;20710;-61